Flight Track Log - Related Links

Times and Time Zones

All times are in EDT time to prevent confusion due to time zone crossing. See the USC105 flight status page for this flight to view local times or setup timezone preferences in your user account.

Time Position Orientation Groundspeed Altitude Reporting Facility
EDT Latitude Longitude Course Direction KTS MPH feet Rate Location/Type
Tue 11:09:11 PM 41.5603 -81.7153 322° Northwest 146 168 2,000  Level Cleveland Center
Tue 11:10:11 PM 41.5828 -81.7603 304° West 136 157 3,100 1,091 Climbing Cleveland Center
Tue 11:11:12 PM 41.5950 -81.8047 290° West 123 142 4,200 934 Climbing Cleveland Center
Tue 11:12:13 PM 41.6069 -81.8494 290° West 128 147 5,000 793 Climbing Cleveland Center
Tue 11:13:13 PM 41.6272 -81.9000 298° West 148 170 5,800 793 Climbing Cleveland Center
Tue 11:14:14 PM 41.6453 -81.9475 297° West 145 167 6,600 893 Climbing Cleveland Center
Tue 11:15:14 PM 41.6636 -81.9978 296° West 146 168 7,600 694 Climbing Cleveland Center
Tue 11:16:15 PM 41.6858 -82.0511 299° West 149 171 8,000 197 Climbing Cleveland Center
Tue 11:17:16 PM 41.7081 -82.1017 301° West 168 193 8,000  Level Cleveland Center
Tue 11:18:16 PM 41.7261 -82.1578 293° West 167 192 8,000  Level Cleveland Center
Tue 11:19:17 PM 41.7481 -82.2197 295° West 176 203 8,000  Level Cleveland Center
Tue 11:20:17 PM 41.7722 -82.2786 299° West 186 214 8,000 -68 Level Cleveland Center
Tue 11:20:45 PM 41.7844 -82.3042 303° West 188 216 7,900 -59 Descending Cleveland Center
Tue 11:21:58 PM 41.8125 -82.3828 296° West 187 215 7,900  Level Cleveland Center
Tue 11:22:58 PM 41.8364 -82.4450 297° West 184 212 7,900  Level Cleveland Center
Tue 11:23:00 PM 41.8368 -82.4458 297° West  Level FlightAware Approximate
Tue 11:24:54 PM 41.8783 -82.5603 296° West 185 213 7,900  Level Cleveland Center
Tue 11:25:54 PM 41.9022 -82.6197 298° West 185 213 7,900  Level Cleveland Center
Tue 11:26:55 PM 41.9261 -82.6875 295° West 184 212 7,900 -141 Level Cleveland Center
Tue 11:28:02 PM 41.9519 -82.7553 297° West 186 214 7,600 -472 Descending Cleveland Center
Tue 11:29:02 PM 41.9778 -82.8233 297° West 206 237 6,900 -645 Descending Cleveland Center
Tue 11:30:03 PM 42.0033 -82.8911 297° West 211 243 6,300 -750 Descending Cleveland Center
Tue 11:31:10 PM 42.0372 -82.9708 300° West 213 245 5,300 -771 Descending Cleveland Center
Tue 11:31:52 PM 42.0614 -83.0108 309° West 213 245 4,900 -233 Descending Cleveland Center
Tue 11:32:53 PM 42.0978 -83.0681 311° West 196 226 4,900  Level Cleveland Center
Tue 11:33:48 PM 42.1258 -83.1225 305° West 186 214 4,900  Level Cleveland Center
Tue 11:35:12 PM 42.1656 -83.1997 305° West 187 215 4,900  Level Cleveland Center
Tue 11:36:07 PM 42.1936 -83.2514 306° West 183 211 4,900 -155 Level Cleveland Center
Tue 11:37:08 PM 42.2256 -83.3086 307° West 180 207 4,600 -694 Descending Cleveland Center
Tue 11:38:08 PM 42.2575 -83.3719 304° West 193 222 3,500 -1,289 Descending Cleveland Center
Tue 11:39:09 PM 42.2917 -83.4267 310° West 203 234 2,000 -936 Descending Cleveland Center
Tue 11:39:57 PM 42.2800 -83.4739 252° West 128 147 1,800 -440 Descending Cleveland Center
Tue 11:40:58 PM 42.2583 -83.5011 223° Southwest 106 122 1,200 -590 Descending Cleveland Center
Tue 11:42:00 PM 42.2333 -83.5167 270° West  Level FlightAware Approximate
Tue 11:49:00 PM 42.2393 -83.5310 270° West  Level Estimated
Tue 11:50:00 PM 42.2393 -83.5310 270° West  Level Estimated

Login

Don't have an account? Register now (free) for customized features, flight alerts, and more!